createdAt,value
2018-06-16T19:28:14.665Z,100608.23
2018-06-16T19:30:43.638Z,100609.45
2018-06-16T19:33:12.048Z,100611.27
2018-06-16T19:35:40.572Z,100617.60
2018-06-16T19:38:09.417Z,100609.45
2018-06-16T19:40:38.119Z,100611.41
2018-06-16T19:43:07.420Z,100605.20
2018-06-16T19:45:36.185Z,100603.50
2018-06-16T19:48:05.047Z,100603.61
2018-06-16T19:50:33.544Z,100607.88
2018-06-16T19:53:02.085Z,100618.35
2018-06-16T19:55:30.735Z,100605.59
2018-06-16T19:57:59.249Z,100607.52
2018-06-16T20:00:34.505Z,100606.53
2018-06-16T20:03:02.912Z,100616.39
2018-06-16T20:05:31.412Z,100614.95
2018-06-16T20:08:02.837Z,100622.23
2018-06-16T20:10:31.514Z,100615.31
2018-06-16T20:12:59.905Z,100613.48
2018-06-16T20:15:28.452Z,100610.30
2018-06-16T20:17:57.025Z,100607.01
2018-06-16T20:20:25.429Z,100604.33
2018-06-16T20:22:53.965Z,100609.06
2018-06-16T20:25:22.485Z,100611.15
2018-06-16T20:27:50.996Z,100609.47
2018-06-16T20:30:27.737Z,100608.86
2018-06-16T20:32:56.662Z,100615.67
2018-06-16T20:35:25.321Z,100617.95
2018-06-16T20:37:54.900Z,100622.94
2018-06-16T20:40:23.541Z,100625.23
2018-06-16T20:42:52.208Z,100636.80
2018-06-16T20:45:20.758Z,100636.59
2018-06-16T20:47:49.304Z,100635.22
2018-06-16T20:50:17.743Z,100635.30
2018-06-16T20:52:46.593Z,100640.23
2018-06-16T20:55:14.993Z,100641.06
2018-06-16T20:57:43.458Z,100644.25
2018-06-16T21:00:11.889Z,100638.24
2018-06-16T21:02:40.493Z,100648.28
2018-06-16T21:05:09.217Z,100653.46
2018-06-16T21:07:37.688Z,100658.47
2018-06-16T21:10:06.072Z,100653.42
2018-06-16T21:12:34.465Z,100652.28
2018-06-16T21:15:02.949Z,100652.20
2018-06-16T21:17:31.450Z,100648.52
2018-06-16T21:19:59.901Z,100648.73
2018-06-16T21:22:29.167Z,100655.40
2018-06-16T21:24:57.796Z,100647.39
2018-06-16T21:27:26.962Z,100646.55
2018-06-16T21:29:55.361Z,100654.06
2018-06-16T21:32:23.806Z,100656.34
2018-06-16T21:34:52.274Z,100655.44
2018-06-16T21:37:21.561Z,100658.72
2018-06-16T21:39:49.994Z,100660.73
2018-06-16T21:42:18.392Z,100635.95
2018-06-16T21:44:46.807Z,100643.83
2018-06-16T21:47:15.759Z,100646.63
2018-06-16T21:49:44.580Z,100650.79
2018-06-16T21:52:13.001Z,100660.30
2018-06-16T21:54:41.436Z,100664.86
2018-06-16T21:57:09.971Z,100658.67
2018-06-16T21:59:38.394Z,100655.40
2018-06-16T22:02:06.787Z,100664.66
2018-06-16T22:04:35.915Z,100665.31
2018-06-16T22:07:04.374Z,100666.88
2018-06-16T22:09:32.861Z,100669.98
2018-06-16T22:12:01.266Z,100675.96
2018-06-16T22:14:29.673Z,100672.23
2018-06-16T22:16:58.595Z,100668.29
2018-06-16T22:19:28.077Z,100663.33
2018-06-16T22:21:56.478Z,100670.68
2018-06-16T22:24:25.614Z,100667.70
2018-06-16T22:26:54.185Z,100665.46
2018-06-16T22:29:22.888Z,100666.31
2018-06-16T22:31:51.284Z,100664.74
2018-06-16T22:34:19.777Z,100665.65
2018-06-16T22:36:48.448Z,100664.48
2018-06-16T22:39:16.946Z,100668.52
2018-06-16T22:41:45.344Z,100673.63
2018-06-16T22:44:13.753Z,100663.75
2018-06-16T22:46:42.221Z,100659.95
2018-06-16T22:49:10.681Z,100662.06
2018-06-16T22:51:39.061Z,100658.84
2018-06-16T22:54:07.466Z,100662.70
2018-06-16T22:56:35.961Z,100659.11
2018-06-16T22:59:04.461Z,100663.59
2018-06-16T23:01:32.853Z,100660.48
2018-06-16T23:04:01.357Z,100656.81
2018-06-16T23:06:30.437Z,100660.25
2018-06-16T23:08:59.123Z,100664.32
2018-06-16T23:11:27.560Z,100664.17
2018-06-16T23:13:55.968Z,100671.41
2018-06-16T23:16:24.461Z,100671.97
2018-06-16T23:18:53.125Z,100675.03
2018-06-16T23:21:21.620Z,100672.73
2018-06-16T23:23:50.093Z,100674.39
2018-06-16T23:26:18.564Z,100679.15
2018-06-16T23:28:47.080Z,100675.04
2018-06-16T23:31:16.020Z,100673.23
2018-06-16T23:33:44.436Z,100677.88
2018-06-16T23:36:12.913Z,100667.64
2018-06-16T23:38:41.436Z,100667.34
2018-06-16T23:41:09.940Z,100667.08
2018-06-16T23:43:39.108Z,100676.30
2018-06-16T23:46:08.075Z,100671.25
2018-06-16T23:48:36.648Z,100682.28
2018-06-16T23:51:08.477Z,100675.93
2018-06-16T23:53:36.956Z,100681.34
2018-06-16T23:56:05.464Z,100675.80
2018-06-16T23:58:33.949Z,100667.55
